sensor_id;sensor_type;location;lat;lon;timestamp;temperature;humidity
2459;DHT22;1241;50.920;6.936;2022-10-16T00:01:51;15.50;99.90
2459;DHT22;1241;50.920;6.936;2022-10-16T00:04:17;15.40;99.90
2459;DHT22;1241;50.920;6.936;2022-10-16T00:06:43;15.40;99.90
2459;DHT22;1241;50.920;6.936;2022-10-16T00:09:09;15.30;99.90
2459;DHT22;1241;50.920;6.936;2022-10-16T00:11:38;15.30;99.90
2459;DHT22;1241;50.920;6.936;2022-10-16T00:14:10;15.30;99.90
2459;DHT22;1241;50.920;6.936;2022-10-16T00:16:36;15.20;99.90
2459;DHT22;1241;50.920;6.936;2022-10-16T00:19:02;15.30;99.90
2459;DHT22;1241;50.920;6.936;2022-10-16T00:21:30;15.30;99.90
2459;DHT22;1241;50.920;6.936;2022-10-16T00:24:04;15.30;99.90
2459;DHT22;1241;50.920;6.936;2022-10-16T00:26:32;15.20;99.90
2459;DHT22;1241;50.920;6.936;2022-10-16T00:28:59;15.20;99.90
2459;DHT22;1241;50.920;6.936;2022-10-16T00:31:25;15.20;99.90
2459;DHT22;1241;50.920;6.936;2022-10-16T00:33:51;15.10;99.90
2459;DHT22;1241;50.920;6.936;2022-10-16T00:36:20;15.20;99.90
2459;DHT22;1241;50.920;6.936;2022-10-16T00:38:47;15.10;99.90
2459;DHT22;1241;50.920;6.936;2022-10-16T00:41:16;15.10;99.90
2459;DHT22;1241;50.920;6.936;2022-10-16T00:43:45;15.00;99.90
2459;DHT22;1241;50.920;6.936;2022-10-16T00:46:16;15.00;99.90
2459;DHT22;1241;50.920;6.936;2022-10-16T00:48:58;15.00;99.90
2459;DHT22;1241;50.920;6.936;2022-10-16T00:51:30;14.90;99.90
2459;DHT22;1241;50.920;6.936;2022-10-16T00:53:57;14.90;99.90
2459;DHT22;1241;50.920;6.936;2022-10-16T00:56:23;14.80;99.90
2459;DHT22;1241;50.920;6.936;2022-10-16T00:58:49;14.80;99.90
2459;DHT22;1241;50.920;6.936;2022-10-16T01:01:15;14.80;99.90
2459;DHT22;1241;50.920;6.936;2022-10-16T01:03:40;14.80;99.90
2459;DHT22;1241;50.920;6.936;2022-10-16T01:06:29;14.70;99.90
2459;DHT22;1241;50.920;6.936;2022-10-16T01:09:21;14.70;99.90
2459;DHT22;1241;50.920;6.936;2022-10-16T01:14:32;14.70;99.90
2459;DHT22;1241;50.920;6.936;2022-10-16T01:17:11;14.60;99.90
2459;DHT22;1241;50.920;6.936;2022-10-16T01:20:04;14.60;99.90
2459;DHT22;1241;50.920;6.936;2022-10-16T01:22:55;14.60;99.90
2459;DHT22;1241;50.920;6.936;2022-10-16T01:25:45;14.60;99.90
2459;DHT22;1241;50.920;6.936;2022-10-16T01:28:17;14.60;99.90
2459;DHT22;1241;50.920;6.936;2022-10-16T01:30:45;14.60;99.90
2459;DHT22;1241;50.920;6.936;2022-10-16T01:33:21;14.60;99.90
2459;DHT22;1241;50.920;6.936;2022-10-16T01:35:54;14.60;99.90
2459;DHT22;1241;50.920;6.936;2022-10-16T01:38:33;14.60;99.90
2459;DHT22;1241;50.920;6.936;2022-10-16T01:41:17;14.70;99.90
2459;DHT22;1241;50.920;6.936;2022-10-16T01:44:06;14.60;99.90
2459;DHT22;1241;50.920;6.936;2022-10-16T01:46:36;14.60;99.90
2459;DHT22;1241;50.920;6.936;2022-10-16T01:49:03;14.60;99.90
2459;DHT22;1241;50.920;6.936;2022-10-16T01:51:29;14.60;99.90
2459;DHT22;1241;50.920;6.936;2022-10-16T01:53:58;14.60;99.90
2459;DHT22;1241;50.920;6.936;2022-10-16T01:56:25;14.60;99.90
2459;DHT22;1241;50.920;6.936;2022-10-16T01:59:06;14.60;99.90
2459;DHT22;1241;50.920;6.936;2022-10-16T02:01:35;14.60;99.90
2459;DHT22;1241;50.920;6.936;2022-10-16T02:04:09;14.60;99.90
2459;DHT22;1241;50.920;6.936;2022-10-16T02:06:38;14.70;99.90
2459;DHT22;1241;50.920;6.936;2022-10-16T02:09:04;14.80;99.90
2459;DHT22;1241;50.920;6.936;2022-10-16T02:11:30;14.80;99.90
2459;DHT22;1241;50.920;6.936;2022-10-16T02:14:02;14.90;99.90
2459;DHT22;1241;50.920;6.936;2022-10-16T02:16:35;15.00;99.90
2459;DHT22;1241;50.920;6.936;2022-10-16T02:19:01;15.00;99.90
2459;DHT22;1241;50.920;6.936;2022-10-16T02:21:39;15.10;99.90
2459;DHT22;1241;50.920;6.936;2022-10-16T02:27:00;15.20;99.90
2459;DHT22;1241;50.920;6.936;2022-10-16T02:29:28;15.20;99.90
2459;DHT22;1241;50.920;6.936;2022-10-16T02:32:00;15.20;99.90
2459;DHT22;1241;50.920;6.936;2022-10-16T02:34:27;15.20;99.90
2459;DHT22;1241;50.920;6.936;2022-10-16T02:36:56;15.20;99.90
2459;DHT22;1241;50.920;6.936;2022-10-16T02:39:23;15.20;99.90
2459;DHT22;1241;50.920;6.936;2022-10-16T02:41:49;15.20;99.90
2459;DHT22;1241;50.920;6.936;2022-10-16T02:44:15;15.20;99.90
2459;DHT22;1241;50.920;6.936;2022-10-16T02:46:40;15.30;99.90
2459;DHT22;1241;50.920;6.936;2022-10-16T02:49:06;15.40;99.90
2459;DHT22;1241;50.920;6.936;2022-10-16T02:51:32;15.40;99.90
2459;DHT22;1241;50.920;6.936;2022-10-16T02:53:57;15.40;99.90
2459;DHT22;1241;50.920;6.936;2022-10-16T02:56:23;15.40;99.90
2459;DHT22;1241;50.920;6.936;2022-10-16T02:58:49;15.50;99.90
2459;DHT22;1241;50.920;6.936;2022-10-16T03:01:15;15.50;99.90
2459;DHT22;1241;50.920;6.936;2022-10-16T03:03:42;15.50;99.90
2459;DHT22;1241;50.920;6.936;2022-10-16T03:06:08;15.50;99.90
2459;DHT22;1241;50.920;6.936;2022-10-16T03:08:34;15.50;99.90
2459;DHT22;1241;50.920;6.936;2022-10-16T03:10:59;15.50;99.90
2459;DHT22;1241;50.920;6.936;2022-10-16T03:13:27;15.50;99.90
2459;DHT22;1241;50.920;6.936;2022-10-16T03:15:53;15.40;99.90
2459;DHT22;1241;50.920;6.936;2022-10-16T03:18:19;15.30;99.90
2459;DHT22;1241;50.920;6.936;2022-10-16T03:20:44;15.30;99.90
2459;DHT22;1241;50.920;6.936;2022-10-16T03:23:10;15.20;99.90
2459;DHT22;1241;50.920;6.936;2022-10-16T03:25:36;15.10;99.90
2459;DHT22;1241;50.920;6.936;2022-10-16T03:28:02;15.10;99.90
2459;DHT22;1241;50.920;6.936;2022-10-16T03:30:28;15.00;99.90
2459;DHT22;1241;50.920;6.936;2022-10-16T03:32:54;15.00;99.90
2459;DHT22;1241;50.920;6.936;2022-10-16T03:35:23;14.90;99.90
2459;DHT22;1241;50.920;6.936;2022-10-16T03:37:50;14.90;99.90
2459;DHT22;1241;50.920;6.936;2022-10-16T03:40:16;14.90;99.90
2459;DHT22;1241;50.920;6.936;2022-10-16T03:42:42;14.90;99.90
2459;DHT22;1241;50.920;6.936;2022-10-16T03:45:09;14.90;99.90
2459;DHT22;1241;50.920;6.936;2022-10-16T03:47:35;14.90;99.90
2459;DHT22;1241;50.920;6.936;2022-10-16T03:50:00;14.90;99.90
2459;DHT22;1241;50.920;6.936;2022-10-16T03:52:26;14.90;99.90
2459;DHT22;1241;50.920;6.936;2022-10-16T03:54:52;15.00;99.90
2459;DHT22;1241;50.920;6.936;2022-10-16T03:57:18;15.00;99.90
2459;DHT22;1241;50.920;6.936;2022-10-16T03:59:43;15.10;99.90
2459;DHT22;1241;50.920;6.936;2022-10-16T04:02:09;15.10;99.90
2459;DHT22;1241;50.920;6.936;2022-10-16T04:04:35;15.10;99.90
2459;DHT22;1241;50.920;6.936;2022-10-16T04:07:01;15.10;99.90
2459;DHT22;1241;50.920;6.936;2022-10-16T04:09:27;15.20;99.90
2459;DHT22;1241;50.920;6.936;2022-10-16T04:11:52;15.20;99.90
2459;DHT22;1241;50.920;6.936;2022-10-16T04:14:18;15.30;99.90
2459;DHT22;1241;50.920;6.936;2022-10-16T04:16:44;15.30;99.90
2459;DHT22;1241;50.920;6.936;2022-10-16T04:19:10;15.30;99.90
2459;DHT22;1241;50.920;6.936;2022-10-16T04:21:37;15.30;99.90
2459;DHT22;1241;50.920;6.936;2022-10-16T04:24:03;15.30;99.90
2459;DHT22;1241;50.920;6.936;2022-10-16T04:26:29;15.30;99.90
2459;DHT22;1241;50.920;6.936;2022-10-16T04:28:55;15.30;99.90
2459;DHT22;1241;50.920;6.936;2022-10-16T04:31:21;15.20;99.90
2459;DHT22;1241;50.920;6.936;2022-10-16T04:33:47;15.20;99.90
2459;DHT22;1241;50.920;6.936;2022-10-16T04:36:13;15.20;99.90
2459;DHT22;1241;50.920;6.936;2022-10-16T04:38:38;15.20;99.90
2459;DHT22;1241;50.920;6.936;2022-10-16T04:41:06;15.20;99.90
2459;DHT22;1241;50.920;6.936;2022-10-16T04:43:32;15.20;99.90
2459;DHT22;1241;50.920;6.936;2022-10-16T04:45:57;15.20;99.90
2459;DHT22;1241;50.920;6.936;2022-10-16T04:48:23;15.20;99.90
2459;DHT22;1241;50.920;6.936;2022-10-16T04:50:49;15.10;99.90
2459;DHT22;1241;50.920;6.936;2022-10-16T04:53:14;15.10;99.90
2459;DHT22;1241;50.920;6.936;2022-10-16T04:55:41;15.10;99.90
2459;DHT22;1241;50.920;6.936;2022-10-16T04:58:07;15.10;99.90
2459;DHT22;1241;50.920;6.936;2022-10-16T05:00:34;15.00;99.90
2459;DHT22;1241;50.920;6.936;2022-10-16T05:03:00;15.00;99.90
2459;DHT22;1241;50.920;6.936;2022-10-16T05:05:27;15.10;99.90
2459;DHT22;1241;50.920;6.936;2022-10-16T05:07:53;15.10;99.90
2459;DHT22;1241;50.920;6.936;2022-10-16T05:10:19;15.00;99.90
2459;DHT22;1241;50.920;6.936;2022-10-16T05:12:45;15.10;99.90
2459;DHT22;1241;50.920;6.936;2022-10-16T05:15:11;15.10;99.90
2459;DHT22;1241;50.920;6.936;2022-10-16T05:17:37;15.10;99.90
2459;DHT22;1241;50.920;6.936;2022-10-16T05:20:03;15.20;99.90
2459;DHT22;1241;50.920;6.936;2022-10-16T05:22:29;15.20;99.90
2459;DHT22;1241;50.920;6.936;2022-10-16T05:24:55;15.30;99.90
2459;DHT22;1241;50.920;6.936;2022-10-16T05:27:20;15.30;99.90
2459;DHT22;1241;50.920;6.936;2022-10-16T05:29:47;15.40;99.90
2459;DHT22;1241;50.920;6.936;2022-10-16T05:32:14;15.40;99.90
2459;DHT22;1241;50.920;6.936;2022-10-16T05:34:40;15.40;99.90
2459;DHT22;1241;50.920;6.936;2022-10-16T05:37:06;15.40;99.90
2459;DHT22;1241;50.920;6.936;2022-10-16T05:39:31;15.40;99.90
2459;DHT22;1241;50.920;6.936;2022-10-16T05:41:57;15.40;99.90
2459;DHT22;1241;50.920;6.936;2022-10-16T05:44:23;15.40;99.90
2459;DHT22;1241;50.920;6.936;2022-10-16T05:46:48;15.40;99.90
2459;DHT22;1241;50.920;6.936;2022-10-16T05:49:14;15.40;99.90
2459;DHT22;1241;50.920;6.936;2022-10-16T05:51:40;15.30;99.90
2459;DHT22;1241;50.920;6.936;2022-10-16T05:54:06;15.10;99.90
2459;DHT22;1241;50.920;6.936;2022-10-16T05:56:32;15.10;99.90
2459;DHT22;1241;50.920;6.936;2022-10-16T05:58:58;15.00;99.90
2459;DHT22;1241;50.920;6.936;2022-10-16T06:01:23;14.90;99.90
2459;DHT22;1241;50.920;6.936;2022-10-16T06:03:53;14.90;99.90
2459;DHT22;1241;50.920;6.936;2022-10-16T06:06:23;14.80;99.90
2459;DHT22;1241;50.920;6.936;2022-10-16T06:08:51;14.80;99.90
2459;DHT22;1241;50.920;6.936;2022-10-16T06:11:20;14.70;99.90
2459;DHT22;1241;50.920;6.936;2022-10-16T06:13:50;14.70;99.90
2459;DHT22;1241;50.920;6.936;2022-10-16T06:16:15;14.70;99.90
2459;DHT22;1241;50.920;6.936;2022-10-16T06:18:41;14.60;99.90
2459;DHT22;1241;50.920;6.936;2022-10-16T06:21:09;14.60;99.90
2459;DHT22;1241;50.920;6.936;2022-10-16T06:23:35;14.60;99.90
2459;DHT22;1241;50.920;6.936;2022-10-16T06:26:21;14.70;99.90
2459;DHT22;1241;50.920;6.936;2022-10-16T06:28:48;14.70;99.90
2459;DHT22;1241;50.920;6.936;2022-10-16T06:31:14;14.80;99.90
2459;DHT22;1241;50.920;6.936;2022-10-16T06:33:41;14.90;99.90
2459;DHT22;1241;50.920;6.936;2022-10-16T06:36:09;14.90;99.90
2459;DHT22;1241;50.920;6.936;2022-10-16T06:38:36;15.10;99.90
2459;DHT22;1241;50.920;6.936;2022-10-16T06:41:03;15.20;99.90
2459;DHT22;1241;50.920;6.936;2022-10-16T06:43:30;15.30;99.90
2459;DHT22;1241;50.920;6.936;2022-10-16T06:46:01;15.40;99.90
2459;DHT22;1241;50.920;6.936;2022-10-16T06:48:28;15.50;99.90
2459;DHT22;1241;50.920;6.936;2022-10-16T06:53:31;15.80;99.90
2459;DHT22;1241;50.920;6.936;2022-10-16T06:55:57;15.90;99.90
2459;DHT22;1241;50.920;6.936;2022-10-16T06:58:23;16.10;99.90
2459;DHT22;1241;50.920;6.936;2022-10-16T07:00:54;16.30;99.90
2459;DHT22;1241;50.920;6.936;2022-10-16T07:03:20;16.30;99.90
2459;DHT22;1241;50.920;6.936;2022-10-16T07:05:46;16.40;99.90
2459;DHT22;1241;50.920;6.936;2022-10-16T07:08:11;16.50;99.90
2459;DHT22;1241;50.920;6.936;2022-10-16T07:10:37;16.60;99.90
2459;DHT22;1241;50.920;6.936;2022-10-16T07:13:03;16.70;99.90
2459;DHT22;1241;50.920;6.936;2022-10-16T07:15:29;16.80;99.90
2459;DHT22;1241;50.920;6.936;2022-10-16T07:17:55;16.90;99.90
2459;DHT22;1241;50.920;6.936;2022-10-16T07:20:20;17.00;99.90
2459;DHT22;1241;50.920;6.936;2022-10-16T07:22:46;17.00;99.90
2459;DHT22;1241;50.920;6.936;2022-10-16T07:25:12;17.10;99.90
2459;DHT22;1241;50.920;6.936;2022-10-16T07:27:38;17.20;99.90
2459;DHT22;1241;50.920;6.936;2022-10-16T07:30:04;17.30;99.90
2459;DHT22;1241;50.920;6.936;2022-10-16T07:32:31;17.20;99.90
2459;DHT22;1241;50.920;6.936;2022-10-16T07:34:58;17.30;99.90
2459;DHT22;1241;50.920;6.936;2022-10-16T07:37:23;17.40;99.90
2459;DHT22;1241;50.920;6.936;2022-10-16T07:39:49;17.40;99.90
2459;DHT22;1241;50.920;6.936;2022-10-16T07:42:15;17.30;99.90
2459;DHT22;1241;50.920;6.936;2022-10-16T07:44:40;17.30;99.90
2459;DHT22;1241;50.920;6.936;2022-10-16T07:47:07;17.20;99.90
2459;DHT22;1241;50.920;6.936;2022-10-16T07:49:32;17.20;99.90
2459;DHT22;1241;50.920;6.936;2022-10-16T07:51:58;17.10;99.90
2459;DHT22;1241;50.920;6.936;2022-10-16T07:54:23;17.00;99.90
2459;DHT22;1241;50.920;6.936;2022-10-16T07:56:49;16.90;99.90
2459;DHT22;1241;50.920;6.936;2022-10-16T07:59:15;16.90;99.90
2459;DHT22;1241;50.920;6.936;2022-10-16T08:01:41;16.80;99.90
2459;DHT22;1241;50.920;6.936;2022-10-16T08:04:08;16.70;99.90
2459;DHT22;1241;50.920;6.936;2022-10-16T08:06:39;16.70;99.90
2459;DHT22;1241;50.920;6.936;2022-10-16T08:09:06;16.60;99.90
2459;DHT22;1241;50.920;6.936;2022-10-16T08:11:32;16.60;99.90
2459;DHT22;1241;50.920;6.936;2022-10-16T08:13:58;16.50;99.90
2459;DHT22;1241;50.920;6.936;2022-10-16T08:16:23;16.60;99.90
2459;DHT22;1241;50.920;6.936;2022-10-16T08:18:49;16.60;99.90
2459;DHT22;1241;50.920;6.936;2022-10-16T08:21:21;16.60;99.90
2459;DHT22;1241;50.920;6.936;2022-10-16T08:23:49;16.80;99.90
2459;DHT22;1241;50.920;6.936;2022-10-16T08:26:14;17.00;99.90
2459;DHT22;1241;50.920;6.936;2022-10-16T08:28:40;17.10;99.90
2459;DHT22;1241;50.920;6.936;2022-10-16T08:31:15;17.20;99.90
2459;DHT22;1241;50.920;6.936;2022-10-16T08:33:43;17.40;99.90
2459;DHT22;1241;50.920;6.936;2022-10-16T08:36:10;17.50;99.90
2459;DHT22;1241;50.920;6.936;2022-10-16T08:38:36;17.50;99.90
2459;DHT22;1241;50.920;6.936;2022-10-16T08:49:33;17.70;99.90
2459;DHT22;1241;50.920;6.936;2022-10-16T08:51:59;17.70;99.90
2459;DHT22;1241;50.920;6.936;2022-10-16T08:54:34;17.80;99.90
2459;DHT22;1241;50.920;6.936;2022-10-16T08:57:20;17.80;99.90
2459;DHT22;1241;50.920;6.936;2022-10-16T08:59:46;17.80;99.90
2459;DHT22;1241;50.920;6.936;2022-10-16T09:10:43;17.90;99.90
2459;DHT22;1241;50.920;6.936;2022-10-16T09:13:39;17.90;99.90
2459;DHT22;1241;50.920;6.936;2022-10-16T09:18:59;18.00;99.90
2459;DHT22;1241;50.920;6.936;2022-10-16T09:21:31;18.10;99.90
2459;DHT22;1241;50.920;6.936;2022-10-16T09:24:47;18.30;99.90
2459;DHT22;1241;50.920;6.936;2022-10-16T09:26:53;18.40;99.90
2459;DHT22;1241;50.920;6.936;2022-10-16T09:29:21;18.50;99.90
2459;DHT22;1241;50.920;6.936;2022-10-16T09:31:47;18.60;99.90
2459;DHT22;1241;50.920;6.936;2022-10-16T09:34:30;18.60;99.90
2459;DHT22;1241;50.920;6.936;2022-10-16T09:36:57;18.70;99.90
2459;DHT22;1241;50.920;6.936;2022-10-16T09:39:24;18.70;99.90
2459;DHT22;1241;50.920;6.936;2022-10-16T09:41:50;18.80;99.90
2459;DHT22;1241;50.920;6.936;2022-10-16T09:44:26;19.00;99.90
2459;DHT22;1241;50.920;6.936;2022-10-16T09:47:15;19.00;99.90
2459;DHT22;1241;50.920;6.936;2022-10-16T09:49:59;19.00;99.90
2459;DHT22;1241;50.920;6.936;2022-10-16T09:52:31;19.10;99.90
2459;DHT22;1241;50.920;6.936;2022-10-16T09:54:59;19.10;99.90
2459;DHT22;1241;50.920;6.936;2022-10-16T09:57:26;19.10;99.90
2459;DHT22;1241;50.920;6.936;2022-10-16T09:59:54;19.20;99.90
2459;DHT22;1241;50.920;6.936;2022-10-16T10:02:40;19.40;99.90
2459;DHT22;1241;50.920;6.936;2022-10-16T10:05:20;19.50;99.90
2459;DHT22;1241;50.920;6.936;2022-10-16T10:08:00;19.50;99.90
2459;DHT22;1241;50.920;6.936;2022-10-16T10:10:33;19.50;99.90
2459;DHT22;1241;50.920;6.936;2022-10-16T10:13:00;19.60;99.90
2459;DHT22;1241;50.920;6.936;2022-10-16T10:15:29;19.70;99.90
2459;DHT22;1241;50.920;6.936;2022-10-16T10:17:58;19.60;99.90
2459;DHT22;1241;50.920;6.936;2022-10-16T10:20:28;19.60;99.90
2459;DHT22;1241;50.920;6.936;2022-10-16T10:22:55;19.70;99.90
2459;DHT22;1241;50.920;6.936;2022-10-16T10:31:14;20.00;99.90
2459;DHT22;1241;50.920;6.936;2022-10-16T10:33:47;20.10;99.90
2459;DHT22;1241;50.920;6.936;2022-10-16T10:36:37;20.20;99.90
2459;DHT22;1241;50.920;6.936;2022-10-16T10:39:22;20.20;99.90
2459;DHT22;1241;50.920;6.936;2022-10-16T10:44:30;20.40;99.90
2459;DHT22;1241;50.920;6.936;2022-10-16T10:47:29;20.50;99.90
2459;DHT22;1241;50.920;6.936;2022-10-16T10:50:12;20.50;99.90
2459;DHT22;1241;50.920;6.936;2022-10-16T10:53:18;20.60;99.90
2459;DHT22;1241;50.920;6.936;2022-10-16T10:58:52;20.90;99.90
2459;DHT22;1241;50.920;6.936;2022-10-16T11:07:02;21.30;99.90
2459;DHT22;1241;50.920;6.936;2022-10-16T11:09:40;21.40;99.90
2459;DHT22;1241;50.920;6.936;2022-10-16T11:15:29;21.40;99.90
2459;DHT22;1241;50.920;6.936;2022-10-16T11:17:59;21.40;99.90
2459;DHT22;1241;50.920;6.936;2022-10-16T11:20:32;21.50;99.90
2459;DHT22;1241;50.920;6.936;2022-10-16T11:23:14;21.40;99.90
2459;DHT22;1241;50.920;6.936;2022-10-16T11:25:43;21.40;99.90
2459;DHT22;1241;50.920;6.936;2022-10-16T11:28:17;21.40;99.90
2459;DHT22;1241;50.920;6.936;2022-10-16T11:33:57;21.80;99.90
2459;DHT22;1241;50.920;6.936;2022-10-16T11:37:14;21.80;99.90
2459;DHT22;1241;50.920;6.936;2022-10-16T11:39:38;21.80;99.90
2459;DHT22;1241;50.920;6.936;2022-10-16T11:50:00;22.50;99.90
2459;DHT22;1241;50.920;6.936;2022-10-16T11:55:40;23.10;99.90
2459;DHT22;1241;50.920;6.936;2022-10-16T12:03:45;23.60;99.90
2459;DHT22;1241;50.920;6.936;2022-10-16T12:09:27;23.40;99.90
2459;DHT22;1241;50.920;6.936;2022-10-16T12:11:54;23.20;99.90
2459;DHT22;1241;50.920;6.936;2022-10-16T12:14:40;23.10;99.90
2459;DHT22;1241;50.920;6.936;2022-10-16T12:17:33;23.10;99.90
2459;DHT22;1241;50.920;6.936;2022-10-16T12:20:18;23.00;99.90
2459;DHT22;1241;50.920;6.936;2022-10-16T12:23:00;23.10;99.90
2459;DHT22;1241;50.920;6.936;2022-10-16T12:28:06;22.90;99.90
2459;DHT22;1241;50.920;6.936;2022-10-16T12:30:34;22.90;99.90
2459;DHT22;1241;50.920;6.936;2022-10-16T12:33:06;23.00;99.90
2459;DHT22;1241;50.920;6.936;2022-10-16T12:35:45;23.00;99.90
2459;DHT22;1241;50.920;6.936;2022-10-16T12:38:26;23.00;99.90
2459;DHT22;1241;50.920;6.936;2022-10-16T12:41:04;23.00;99.90
2459;DHT22;1241;50.920;6.936;2022-10-16T12:43:46;23.00;99.90
2459;DHT22;1241;50.920;6.936;2022-10-16T12:48:40;23.10;99.90
2459;DHT22;1241;50.920;6.936;2022-10-16T12:54:02;23.10;99.90
2459;DHT22;1241;50.920;6.936;2022-10-16T12:56:47;23.10;99.90
2459;DHT22;1241;50.920;6.936;2022-10-16T12:59:28;23.20;99.90
2459;DHT22;1241;50.920;6.936;2022-10-16T13:07:54;23.40;99.90
2459;DHT22;1241;50.920;6.936;2022-10-16T13:10:36;23.30;99.90
2459;DHT22;1241;50.920;6.936;2022-10-16T13:13:34;23.10;99.90
2459;DHT22;1241;50.920;6.936;2022-10-16T13:21:31;23.20;99.90
2459;DHT22;1241;50.920;6.936;2022-10-16T13:26:57;22.90;99.90
2459;DHT22;1241;50.920;6.936;2022-10-16T13:29:31;22.70;99.90
2459;DHT22;1241;50.920;6.936;2022-10-16T13:31:58;22.60;99.90
2459;DHT22;1241;50.920;6.936;2022-10-16T13:34:25;22.70;99.90
2459;DHT22;1241;50.920;6.936;2022-10-16T13:36:53;22.80;99.90
2459;DHT22;1241;50.920;6.936;2022-10-16T13:39:25;23.00;99.90
2459;DHT22;1241;50.920;6.936;2022-10-16T13:42:01;23.00;99.90
2459;DHT22;1241;50.920;6.936;2022-10-16T13:44:33;23.00;99.90
2459;DHT22;1241;50.920;6.936;2022-10-16T13:47:03;23.10;99.90
2459;DHT22;1241;50.920;6.936;2022-10-16T13:49:28;23.20;99.90
2459;DHT22;1241;50.920;6.936;2022-10-16T13:51:56;23.30;99.90
2459;DHT22;1241;50.920;6.936;2022-10-16T13:54:23;23.30;99.90
2459;DHT22;1241;50.920;6.936;2022-10-16T13:56:49;23.20;99.90
2459;DHT22;1241;50.920;6.936;2022-10-16T13:59:26;23.00;99.90
2459;DHT22;1241;50.920;6.936;2022-10-16T14:01:55;22.90;99.90
2459;DHT22;1241;50.920;6.936;2022-10-16T14:04:22;22.90;99.90
2459;DHT22;1241;50.920;6.936;2022-10-16T14:06:50;23.00;99.90
2459;DHT22;1241;50.920;6.936;2022-10-16T14:11:53;23.20;99.90
2459;DHT22;1241;50.920;6.936;2022-10-16T14:14:19;23.20;99.90
2459;DHT22;1241;50.920;6.936;2022-10-16T14:16:46;23.10;99.90
2459;DHT22;1241;50.920;6.936;2022-10-16T14:19:25;23.10;99.90
2459;DHT22;1241;50.920;6.936;2022-10-16T14:21:51;22.90;99.90
2459;DHT22;1241;50.920;6.936;2022-10-16T14:24:35;22.80;99.90
2459;DHT22;1241;50.920;6.936;2022-10-16T14:27:01;22.70;99.90
2459;DHT22;1241;50.920;6.936;2022-10-16T14:29:29;22.60;99.90
2459;DHT22;1241;50.920;6.936;2022-10-16T14:32:00;22.40;99.90
2459;DHT22;1241;50.920;6.936;2022-10-16T14:34:35;22.20;99.90
2459;DHT22;1241;50.920;6.936;2022-10-16T14:37:08;22.00;99.90
2459;DHT22;1241;50.920;6.936;2022-10-16T14:39:35;21.90;99.90
2459;DHT22;1241;50.920;6.936;2022-10-16T14:42:01;21.90;99.90
2459;DHT22;1241;50.920;6.936;2022-10-16T14:44:31;21.80;99.90
2459;DHT22;1241;50.920;6.936;2022-10-16T14:47:05;21.80;99.90
2459;DHT22;1241;50.920;6.936;2022-10-16T14:49:32;21.80;99.90
2459;DHT22;1241;50.920;6.936;2022-10-16T14:51:57;21.80;99.90
2459;DHT22;1241;50.920;6.936;2022-10-16T14:54:23;21.90;99.90
2459;DHT22;1241;50.920;6.936;2022-10-16T14:56:54;22.10;99.90
2459;DHT22;1241;50.920;6.936;2022-10-16T15:04:50;22.10;99.90
2459;DHT22;1241;50.920;6.936;2022-10-16T15:07:16;22.10;99.90
2459;DHT22;1241;50.920;6.936;2022-10-16T15:09:42;22.10;99.90
2459;DHT22;1241;50.920;6.936;2022-10-16T15:12:08;22.00;99.90
2459;DHT22;1241;50.920;6.936;2022-10-16T15:14:33;22.00;99.90
2459;DHT22;1241;50.920;6.936;2022-10-16T15:16:59;21.90;99.90
2459;DHT22;1241;50.920;6.936;2022-10-16T15:19:25;21.80;99.90
2459;DHT22;1241;50.920;6.936;2022-10-16T15:21:51;21.80;99.90
2459;DHT22;1241;50.920;6.936;2022-10-16T15:24:17;21.80;99.90
2459;DHT22;1241;50.920;6.936;2022-10-16T15:26:43;21.80;99.90
2459;DHT22;1241;50.920;6.936;2022-10-16T15:29:11;21.80;99.90
2459;DHT22;1241;50.920;6.936;2022-10-16T15:31:37;21.80;99.90
2459;DHT22;1241;50.920;6.936;2022-10-16T15:34:04;21.70;99.90
2459;DHT22;1241;50.920;6.936;2022-10-16T15:36:37;21.60;99.90
2459;DHT22;1241;50.920;6.936;2022-10-16T15:41:40;21.30;99.90
2459;DHT22;1241;50.920;6.936;2022-10-16T15:44:05;21.20;99.90
2459;DHT22;1241;50.920;6.936;2022-10-16T15:46:31;21.20;99.90
2459;DHT22;1241;50.920;6.936;2022-10-16T15:48:59;21.10;99.90
2459;DHT22;1241;50.920;6.936;2022-10-16T15:51:25;21.10;99.90
2459;DHT22;1241;50.920;6.936;2022-10-16T15:53:56;21.00;99.90
2459;DHT22;1241;50.920;6.936;2022-10-16T15:56:22;21.00;99.90
2459;DHT22;1241;50.920;6.936;2022-10-16T15:58:48;21.00;99.90
2459;DHT22;1241;50.920;6.936;2022-10-16T16:01:14;20.90;99.90
2459;DHT22;1241;50.920;6.936;2022-10-16T16:03:39;20.80;99.90
2459;DHT22;1241;50.920;6.936;2022-10-16T16:06:10;20.80;99.90
2459;DHT22;1241;50.920;6.936;2022-10-16T16:08:38;20.70;99.90
2459;DHT22;1241;50.920;6.936;2022-10-16T16:11:10;20.70;99.90
2459;DHT22;1241;50.920;6.936;2022-10-16T16:13:36;20.60;99.90
2459;DHT22;1241;50.920;6.936;2022-10-16T16:16:11;20.50;99.90
2459;DHT22;1241;50.920;6.936;2022-10-16T16:18:37;20.40;99.90
2459;DHT22;1241;50.920;6.936;2022-10-16T16:21:03;20.40;99.90
2459;DHT22;1241;50.920;6.936;2022-10-16T16:23:29;20.40;99.90
2459;DHT22;1241;50.920;6.936;2022-10-16T16:26:05;20.30;99.90
2459;DHT22;1241;50.920;6.936;2022-10-16T16:28:31;20.20;99.90
2459;DHT22;1241;50.920;6.936;2022-10-16T16:30:57;20.00;99.90
2459;DHT22;1241;50.920;6.936;2022-10-16T16:33:23;20.00;99.90
2459;DHT22;1241;50.920;6.936;2022-10-16T16:35:49;20.00;99.90
2459;DHT22;1241;50.920;6.936;2022-10-16T16:38:15;19.90;99.90
2459;DHT22;1241;50.920;6.936;2022-10-16T16:40:41;19.80;99.90
2459;DHT22;1241;50.920;6.936;2022-10-16T16:43:09;19.80;99.90
2459;DHT22;1241;50.920;6.936;2022-10-16T16:45:35;19.70;99.90
2459;DHT22;1241;50.920;6.936;2022-10-16T16:48:01;19.60;99.90
2459;DHT22;1241;50.920;6.936;2022-10-16T16:50:27;19.70;99.90
2459;DHT22;1241;50.920;6.936;2022-10-16T16:52:52;19.60;99.90
2459;DHT22;1241;50.920;6.936;2022-10-16T16:55:18;19.60;99.90
2459;DHT22;1241;50.920;6.936;2022-10-16T16:57:44;19.60;99.90
2459;DHT22;1241;50.920;6.936;2022-10-16T17:00:13;19.60;99.90
2459;DHT22;1241;50.920;6.936;2022-10-16T17:02:39;19.60;99.90
2459;DHT22;1241;50.920;6.936;2022-10-16T17:05:08;19.50;99.90
2459;DHT22;1241;50.920;6.936;2022-10-16T17:07:34;19.50;99.90
2459;DHT22;1241;50.920;6.936;2022-10-16T17:10:01;19.40;99.90
2459;DHT22;1241;50.920;6.936;2022-10-16T17:12:29;19.50;99.90
2459;DHT22;1241;50.920;6.936;2022-10-16T17:14:56;19.40;99.90
2459;DHT22;1241;50.920;6.936;2022-10-16T17:17:21;19.30;99.90
2459;DHT22;1241;50.920;6.936;2022-10-16T17:19:49;19.30;99.90
2459;DHT22;1241;50.920;6.936;2022-10-16T17:22:15;19.30;99.90
2459;DHT22;1241;50.920;6.936;2022-10-16T17:24:41;19.40;99.90
2459;DHT22;1241;50.920;6.936;2022-10-16T17:27:07;19.40;99.90
2459;DHT22;1241;50.920;6.936;2022-10-16T17:29:33;19.30;99.90
2459;DHT22;1241;50.920;6.936;2022-10-16T17:31:58;19.20;99.90
2459;DHT22;1241;50.920;6.936;2022-10-16T17:34:24;19.20;99.90
2459;DHT22;1241;50.920;6.936;2022-10-16T17:36:50;19.20;99.90
2459;DHT22;1241;50.920;6.936;2022-10-16T17:39:16;19.10;99.90
2459;DHT22;1241;50.920;6.936;2022-10-16T17:41:42;19.10;99.90
2459;DHT22;1241;50.920;6.936;2022-10-16T17:44:10;19.00;99.90
2459;DHT22;1241;50.920;6.936;2022-10-16T17:46:37;18.90;99.90
2459;DHT22;1241;50.920;6.936;2022-10-16T17:49:03;18.90;99.90
2459;DHT22;1241;50.920;6.936;2022-10-16T17:51:30;18.90;99.90
2459;DHT22;1241;50.920;6.936;2022-10-16T17:53:58;18.90;99.90
2459;DHT22;1241;50.920;6.936;2022-10-16T17:56:25;18.90;99.90
2459;DHT22;1241;50.920;6.936;2022-10-16T17:58:53;19.00;99.90
2459;DHT22;1241;50.920;6.936;2022-10-16T18:01:20;18.90;99.90